EA3ANS-1 Weather Reports


time (UTC)temp
C
wind
direction
speed
KPH
gust
KPH
rain 1hr
cm
rain 24hr
cm
rain mn
cm
humidity
%
barometer
mb
20190422180634 15 90 0.0 0.0 0.00 0.10 0.00 63
20190422175634 16 239 0.0 0.0 0.00 0.10 0.00 59
20190422174646 16 284 3.2 3.2 0.00 0.10 0.00 58
20190422173635 16 315 3.2 4.8 0.00 0.10 0.00 57
20190422172635 16 315 0.0 0.0 0.00 0.10 0.00 58
20190422171633 16 343 1.6 3.2 0.00 0.10 0.00 58
20190422170636 16 316 6.4 6.4 0.00 0.10 0.00 58
20190422165630 16 291 3.2 3.2 0.00 0.10 0.00 58
20190422164633 16 172 0.0 0.0 0.00 0.10 0.00 56
20190422163635 16 172 0.0 0.0 0.00 0.10 0.00 57
20190422162632 16 172 0.0 0.0 0.00 0.10 0.00 58
20190422161634 16 179 0.0 0.0 0.00 0.10 0.00 59
20190422160637 16 156 8.0 8.0 0.00 0.10 0.00 59
20190422155639 16 169 8.0 9.7 0.00 0.10 0.00 58
20190422154637 16 315 0.0 0.0 0.00 0.10 0.00 54
20190422153639 17 315 0.0 0.0 0.00 0.10 0.00 55
20190422152642 17 315 0.0 0.0 0.00 0.10 0.00 54
20190422151638 17 315 0.0 0.0 0.00 0.10 0.00 55
20190422150641 16 267 3.2 3.2 0.00 0.10 0.00 53
20190422145644 17 349 3.2 6.4 0.00 0.10 0.00 53
20190422144646 17 70 0.0 4.8 0.00 0.10 0.00 53
20190422143643 16 135 4.8 4.8 0.00 0.10 0.00 52
20190422142646 16 79 8.0 12.9 0.00 0.10 0.00 52
20190422141648 16 62 9.7 9.7 0.00 0.10 0.00 52
20190422140651 16 121 4.8 4.8 0.00 0.10 0.00 52
20190422135654 16 73 8.0 1.6 0.00 0.10 0.00 52
20190422134656 17 0.0 0.0 0.00 0.10 0.00 51
20190422134651 17 118 6.4 8.0 0.00 0.10 0.00 51
20190422133649 17 111 4.8 3.2 0.00 0.10 0.00 52
20190422132639 17 132 6.4 6.4 0.00 0.10 0.00 52
20190422131642 17 122 9.7 11.3 0.00 0.10 0.00 53
20190422130644 17 107 8.0 4.8 0.00 0.10 0.00 52
20190422125645 17 70 4.8 4.8 0.00 0.10 0.00 55
20190422124647 17 49 8.0 4.8 0.00 0.10 0.00 55
20190422123650 17 101 14.5 12.9 0.00 0.10 0.00 55
20190422122652 17 167 11.3 6.4 0.00 0.10 0.00 54
20190422121646 17 89 12.9 9.7 0.00 0.10 0.00 54
20190422120648 17 96 14.5 9.7 0.00 0.10 0.00 53
20190422115651 17 124 8.0 8.0 0.00 0.10 0.00 53
20190422114651 18 125 4.8 11.3 0.00 0.10 0.00 51
20190422113654 18 66 14.5 17.7 0.00 0.10 0.00 50
20190422112654 19 69 11.3 9.7 0.00 0.10 0.00 47
20190422111653 20 149 4.8 4.8 0.00 0.10 0.00 44
20190422110640 19 20 6.4 1.6 0.00 0.10 0.00 45
20190422105641 18 89 6.4 3.2 0.00 0.10 0.00 47
20190422104643 18 62 9.7 8.0 0.00 0.10 0.00 48
20190422103643 18 90 8.0 12.9 0.00 0.10 0.00 49
20190422102645 17 68 12.9 12.9 0.00 0.10 0.00 49
20190422101648 17 128 14.5 11.3 0.00 0.10 0.00 51
20190422100651 17 118 11.3 11.3 0.00 0.10 0.00 51
20190422095648 18 83 14.5 9.7 0.00 0.10 0.00 49
20190422094644 18 89 12.9 17.7 0.00 0.10 0.00 47
20190422093647 18 82 9.7 12.9 0.00 0.10 0.00 47
20190422092647 18 96 14.5 11.3 0.00 0.10 0.00 46
20190422090648 20 97 3.2 9.7 0.00 0.10 0.00 42
20190422085650 19 51 1.6 3.2 0.00 0.10 0.00 44
20190422084644 18 53 3.2 1.6 0.00 0.10 0.00 47
20190422083645 17 339 4.8 6.4 0.00 0.10 0.00 48
20190422082638 17 6 1.6 4.8 0.00 0.10 0.00 52
20190422081639 16 330 9.7 8.0 0.10 0.10 0.00 54
20190422080642 15 37 6.4 4.8 0.10 0.10 0.00 60
20190422075643 14 51 0.0 0.0 0.10 0.10 0.00 67
20190422074646 13 35 3.2 0.0 0.10 0.10 0.00 72
20190422073643 13 65 4.8 3.2 0.10 0.10 0.00 75
20190422072644 13 65 0.0 0.0 0.10 0.10 0.00 74
20190422071639 13 0 6.4 4.8 0.00 0.48 0.10 73
20190422070640 13 41 0.0 0.0 0.00 0.48 0.10 65
20190422065641 14 41 0.0 0.0 0.00 0.48 0.05 61
20190422064642 15 31 8.0 8.0 0.00 0.48 0.03 58
20190422063644 15 76 4.8 4.8 0.00 0.48 0.00 53
20190422062901 15 49 1.6 3.2 0.00 0.48 0.00 52
20190422061640 15 79 4.8 8.0 0.00 0.48 0.00 50
20190422060635 15 45 4.8 6.4 0.00 0.48 0.00 50
20190422055637 15 30 14.5 14.5 0.00 0.48 0.00 49
20190422054640 15 349 8.0 9.7 0.00 0.48 0.00 48
20190422053639 15 31 9.7 9.7 0.00 0.48 0.00 47
20190422052642 15 353 9.7 16.1 0.00 0.48 0.00 48
20190422051637 15 359 11.3 16.1 0.00 0.48 0.00 47
20190422050630 15 359 14.5 12.9 0.00 0.48 0.00 47
20190422045632 15 13 12.9 6.4 0.00 0.48 0.00 46
20190422044628 15 333 11.3 11.3 0.00 0.48 0.00 47
20190422043631 16 347 16.1 17.7 0.00 0.48 0.00 46
20190422042632 15 359 11.3 12.9 0.00 0.48 0.00 48
20190422041635 15 18 16.1 22.5 0.00 0.48 0.00 49
20190422040627 15 7 17.7 11.3 0.00 0.48 0.00 50
20190422035629 15 31 12.9 9.7 0.00 0.48 0.00 50
20190422034626 15 15 12.9 9.7 0.00 0.48 0.00 51
20190422033630 15 357 4.8 4.8 0.00 0.48 0.00 53
20190422032631 15 52 0.0 0.0 0.00 0.48 0.00 53
20190422031634 15 52 0.0 0.0 0.00 0.48 0.00 52
20190422030634 15 52 0.0 0.0 0.00 0.48 0.00 52
20190422025626 15 59 6.4 6.4 0.00 0.48 0.00 51
20190422024624 15 75 6.4 4.8 0.00 0.48 0.00 49
20190422023625 15 86 6.4 0.0 0.00 0.48 0.00 48
20190422022622 15 273 1.6 0.0 0.00 0.48 0.00 48
20190422021623 15 35 4.8 8.0 0.00 0.48 0.00 47
20190422020622 15 3 9.7 14.5 0.00 0.48 0.00 47
20190422015624 15 359 8.0 9.7 0.00 0.48 0.00 49
20190422014624 15 0.0 0.0 0.00 0.48 0.00 49
20190422014618 15 359 6.4 6.4 0.00 0.48 0.00 49
20190422013620 15 359 6.4 11.3 0.00 0.48 0.00 50
20190422012620 14 27 4.8 6.4 0.00 0.48 0.00 51
20190422011619 14 14 6.4 6.4 0.00 0.48 0.00 52
20190422010616 14 37 6.4 6.4 0.00 0.48 0.00 53
20190422005641 14 72 4.8 6.4 0.00 0.48 0.00 52
20190422004621 15 55 1.6 0.0 0.00 0.48 0.00 51
20190422003618 15 34 0.0 0.0 0.00 0.48 0.00 50
20190422002619 15 41 6.4 3.2 0.00 0.48 0.00 50
20190422001616 15 44 4.8 6.4 0.00 0.48 0.00 49
20190422000616 15 70 6.4 6.4 0.00 0.48 0.00 50
20190421235616 15 86 6.4 6.4 0.00 0.48 0.00 50
20190421234618 15 37 4.8 6.4 0.00 0.48 0.00 50
20190421233620 15 3 6.4 8.0 0.00 0.48 0.00 50
20190421232614 15 10 8.0 8.0 0.00 0.48 0.00 50
20190421231613 15 65 6.4 1.6 0.00 0.48 0.00 50
20190421230612 15 18 6.4 6.4 0.00 0.48 0.00 50
20190421225611 15 46 9.7 4.8 0.00 0.48 0.00 50
20190421224614 15 332 6.4 8.0 0.00 0.48 0.00 50
20190421223616 15 0 9.7 8.0 0.00 0.48 0.00 50
20190421222612 15 359 9.7 9.7 0.00 0.48 0.00 50
20190421221607 15 357 12.9 9.7 0.00 0.48 0.00 50
20190421220609 15 10 11.3 8.0 0.00 0.48 0.00 52
20190421215608 15 15 11.3 9.7 0.00 0.48 0.00 53
20190421214604 15 21 14.5 8.0 0.00 0.48 0.00 53
20190421213606 15 346 14.5 8.0 0.00 0.48 0.00 53
20190421212605 15 342 9.7 11.3 0.00 0.48 0.00 54
20190421211608 15 349 8.0 8.0 0.00 0.48 0.00 55
20190421210607 15 0.0 0.0 0.00 0.48 0.00 55
20190421210601 15 11 4.8 3.2 0.00 0.48 0.00 55
20190421205602 15 333 4.8 0.0 0.00 0.48 0.00 55
20190421204604 15 124 0.0 0.0 0.00 0.48 0.00 54
20190421203603 15 87 0.0 4.8 0.00 0.48 0.00 53
20190421202603 15 68 3.2 1.6 0.00 0.48 0.00 53
20190421201606 15 107 1.6 1.6 0.00 0.48 0.00 51
20190421200606 15 359 4.8 6.4 0.00 0.48 0.00 52
20190421195601 15 10 6.4 3.2 0.00 0.48 0.00 52
20190421194557 15 58 8.0 6.4 0.00 0.48 0.00 52
20190421193600 15 7 6.4 9.7 0.00 0.48 0.00 51
20190421192559 15 4 8.0 8.0 0.00 0.48 0.00 52
20190421191558 16 354 9.7 8.0 0.00 0.48 0.00 51
20190421190600 16 6 11.3 8.0 0.00 0.48 0.00 51
20190421185603 16 352 9.7 11.3 0.00 0.48 0.00 50
20190421184558 16 342 8.0 4.8 0.00 0.48 0.00 49
20190421183558 16 24 4.8 9.7 0.00 0.48 0.00 49
20190421182556 17 155 0.0 0.0 0.00 0.48 0.00 49
20190421181552 17 155 0.0 0.0 0.00 0.48 0.00 49